Time;durP1;ratioP1;P1;durP2;ratioP2;P2;SDS_P1;SDS_P2;PMS_P1;PMS_P2;Temp;Humidity;BMP_temperature;BMP_pressure;BME280_temperature;BME280_humidity;BME280_pressure;Samples;Min_cycle;Max_cycle;Signal;HPM_P1;HPM_P2
2022/02/19 00:00:15;;;;;;;15.05;2.22;;;7.40;97.50;;;;;;5012023;28;20037;-85
2022/02/19 00:02:41;;;;;;;10.77;2.30;;;7.40;97.60;;;;;;5025054;28;20030;-87
2022/02/19 00:05:08;;;;;;;10.35;2.05;;;7.30;97.80;;;;;;5025435;28;20030;-87
2022/02/19 00:07:34;;;;;;;18.00;2.78;;;7.30;97.30;;;;;;5020036;28;20392;-86
2022/02/19 00:10:00;;;;;;;16.48;3.58;;;7.30;98.40;;;;;;5014119;28;20566;-87
2022/02/19 00:12:26;;;;;;;17.85;2.60;;;7.30;97.90;;;;;;5032484;28;20392;-86
2022/02/19 00:14:55;;;;;;;10.40;2.25;;;7.30;98.60;;;;;;5016725;28;20129;-86
2022/02/19 00:17:21;;;;;;;12.68;2.25;;;7.30;98.90;;;;;;5018977;28;20392;-86
2022/02/19 00:19:48;;;;;;;17.20;2.50;;;7.30;98.00;;;;;;5020949;28;20030;-86
2022/02/19 00:22:14;;;;;;;12.48;2.17;;;7.30;98.60;;;;;;5021407;28;20033;-86
2022/02/19 00:24:40;;;;;;;15.23;2.88;;;7.30;98.30;;;;;;5024771;28;20499;-86
2022/02/19 00:27:05;;;;;;;9.60;1.88;;;7.20;98.90;;;;;;5025137;28;20447;-86
2022/02/19 00:29:31;;;;;;;12.85;3.25;;;7.20;98.40;;;;;;5015813;28;20076;-86
2022/02/19 00:31:57;;;;;;;10.35;1.92;;;7.30;98.50;;;;;;5021452;28;20372;-86
2022/02/19 00:34:23;;;;;;;12.10;2.20;;;7.20;99.10;;;;;;5025427;28;20121;-86
2022/02/19 00:36:48;;;;;;;11.90;1.83;;;7.20;98.60;;;;;;5011967;28;20037;-84
2022/02/19 00:39:14;;;;;;;11.10;2.45;;;7.30;98.80;;;;;;5022793;28;20052;-86
2022/02/19 00:41:40;;;;;;;8.73;1.73;;;7.20;98.90;;;;;;5001938;28;20041;-86
2022/02/19 00:44:07;;;;;;;14.60;2.00;;;7.20;98.90;;;;;;5043794;28;20034;-87
2022/02/19 00:46:33;;;;;;;15.20;2.58;;;7.20;99.10;;;;;;5015407;23;20065;-88
2022/02/19 00:49:01;;;;;;;16.73;2.80;;;7.30;99.40;;;;;;4994530;28;20085;-87
2022/02/19 00:51:28;;;;;;;11.57;2.53;;;7.20;99.70;;;;;;5011321;28;20475;-88
2022/02/19 00:53:54;;;;;;;13.95;2.72;;;7.20;99.90;;;;;;4995870;28;20033;-88
2022/02/19 00:56:19;;;;;;;13.52;2.33;;;7.20;99.90;;;;;;4979274;28;20568;-88
2022/02/19 00:58:45;;;;;;;13.43;2.28;;;7.20;99.90;;;;;;4996085;28;20041;-87
2022/02/19 01:01:11;;;;;;;13.32;2.10;;;7.20;99.90;;;;;;4995229;28;20089;-88
2022/02/19 01:03:37;;;;;;;15.82;3.53;;;7.20;99.90;;;;;;4995516;28;20137;-87
2022/02/19 01:06:02;;;;;;;13.68;3.17;;;7.20;99.90;;;;;;4979539;28;20041;-86
2022/02/19 01:08:28;;;;;;;16.52;2.60;;;7.20;99.90;;;;;;4977067;28;20917;-87
2022/02/19 01:10:54;;;;;;;14.43;2.40;;;7.10;99.90;;;;;;4978801;28;20043;-87
2022/02/19 01:13:19;;;;;;;12.23;2.40;;;7.20;99.90;;;;;;5010921;28;20093;-87
2022/02/19 01:15:45;;;;;;;17.17;2.33;;;7.10;99.90;;;;;;4995001;28;20034;-87
2022/02/19 01:18:11;;;;;;;13.40;2.20;;;7.10;99.90;;;;;;4995165;28;20583;-86
2022/02/19 01:20:41;;;;;;;11.45;2.55;;;7.10;99.90;;;;;;4989902;28;20351;-87
2022/02/19 01:23:07;;;;;;;17.35;4.47;;;7.10;99.90;;;;;;4999330;28;20072;-87
2022/02/19 01:25:33;;;;;;;14.63;2.63;;;7.10;99.90;;;;;;4994452;28;20038;-86
2022/02/19 01:27:59;;;;;;;11.55;2.35;;;7.10;99.90;;;;;;5011049;28;20038;-88
2022/02/19 01:30:25;;;;;;;8.48;2.20;;;7.10;99.90;;;;;;4981517;28;20039;-87
2022/02/19 01:32:50;;;;;;;9.73;2.38;;;7.10;99.90;;;;;;4983603;28;20038;-87
2022/02/19 01:35:16;;;;;;;17.20;2.95;;;7.10;99.90;;;;;;5020104;28;20038;-86
2022/02/19 01:37:42;;;;;;;20.63;2.58;;;7.10;99.90;;;;;;4994177;28;20405;-87
2022/02/19 01:40:08;;;;;;;16.02;2.00;;;7.10;99.90;;;;;;5017010;28;20510;-87
2022/02/19 01:42:33;;;;;;;14.13;2.35;;;7.10;99.90;;;;;;4973933;28;20089;-85
2022/02/19 01:44:59;;;;;;;10.77;2.28;;;7.10;99.90;;;;;;4987511;28;20129;-85
2022/02/19 01:47:25;;;;;;;13.13;2.30;;;7.10;99.90;;;;;;5002705;28;20042;-88
2022/02/19 01:49:50;;;;;;;17.17;2.50;;;7.00;99.90;;;;;;4994495;28;20537;-86
2022/02/19 01:52:17;;;;;;;14.13;2.83;;;7.10;99.90;;;;;;4994086;28;20405;-86
2022/02/19 01:54:44;;;;;;;10.40;2.70;;;7.10;99.90;;;;;;4991130;28;20046;-86
2022/02/19 01:57:10;;;;;;;10.65;1.77;;;7.10;99.90;;;;;;5000075;28;20026;-86
2022/02/19 01:59:38;;;;;;;12.50;1.58;;;7.10;99.90;;;;;;5000501;28;20120;-87
2022/02/19 02:02:04;;;;;;;13.25;2.45;;;7.00;99.90;;;;;;4997798;28;20035;-86
2022/02/19 02:04:30;;;;;;;11.95;2.05;;;7.00;99.90;;;;;;5001567;28;20034;-87
2022/02/19 02:06:56;;;;;;;9.30;1.75;;;7.00;99.90;;;;;;4981643;28;20057;-85
2022/02/19 02:09:23;;;;;;;9.25;1.55;;;7.00;99.90;;;;;;4966338;28;20099;-87
2022/02/19 02:11:48;;;;;;;7.00;1.67;;;7.10;99.00;;;;;;4981649;28;20049;-87
2022/02/19 02:14:15;;;;;;;8.98;1.48;;;7.00;99.50;;;;;;4979673;28;20491;-87
2022/02/19 02:16:42;;;;;;;11.20;1.73;;;7.00;98.70;;;;;;5015934;28;20038;-86
2022/02/19 02:19:09;;;;;;;9.27;2.30;;;7.00;98.80;;;;;;5004282;28;20029;-86
2022/02/19 02:21:38;;;;;;;7.30;1.52;;;7.00;98.90;;;;;;5000905;28;20048;-87
2022/02/19 02:24:05;;;;;;;8.43;2.05;;;7.00;98.70;;;;;;5027463;28;20034;-87
2022/02/19 02:26:31;;;;;;;7.53;1.60;;;7.00;98.70;;;;;;5021569;28;20537;-87
2022/02/19 02:28:57;;;;;;;11.65;1.67;;;7.00;98.50;;;;;;5014992;28;20081;-87
2022/02/19 02:31:24;;;;;;;12.70;1.83;;;7.00;98.80;;;;;;5020163;28;20042;-87
2022/02/19 02:33:52;;;;;;;8.38;1.38;;;7.00;98.70;;;;;;4997155;28;20041;-85
2022/02/19 02:36:18;;;;;;;10.68;1.60;;;7.00;98.50;;;;;;5010775;28;20044;-85
2022/02/19 02:38:44;;;;;;;8.55;1.55;;;7.00;98.20;;;;;;5013169;28;20038;-87
2022/02/19 02:41:10;;;;;;;11.20;1.65;;;7.00;98.20;;;;;;5001512;28;20041;-86
2022/02/19 02:43:36;;;;;;;8.85;1.60;;;7.00;98.60;;;;;;5010142;28;20038;-86
2022/02/19 02:46:02;;;;;;;7.60;1.50;;;7.00;99.30;;;;;;5009512;28;20596;-87
2022/02/19 02:48:28;;;;;;;12.80;2.15;;;7.00;98.80;;;;;;5013504;28;20042;-86
2022/02/19 02:50:55;;;;;;;7.45;1.25;;;7.00;99.40;;;;;;5021154;28;20045;-86
2022/02/19 02:53:21;;;;;;;10.07;1.70;;;7.00;99.00;;;;;;5005524;28;20042;-86
2022/02/19 02:55:46;;;;;;;10.50;2.47;;;7.00;98.80;;;;;;5003370;28;20034;-86
2022/02/19 02:58:12;;;;;;;11.15;2.33;;;7.00;98.80;;;;;;4987355;28;20042;-86
2022/02/19 03:00:38;;;;;;;9.15;2.15;;;7.00;98.40;;;;;;4974237;28;20042;-86
2022/02/19 03:03:03;;;;;;;9.05;1.98;;;7.00;98.50;;;;;;4980844;28;20470;-86
2022/02/19 03:05:29;;;;;;;12.73;1.75;;;7.00;98.50;;;;;;5010853;28;20070;-86
2022/02/19 03:07:55;;;;;;;16.27;1.77;;;7.00;98.60;;;;;;4952776;28;20070;-86
2022/02/19 03:10:20;;;;;;;10.40;2.05;;;7.00;98.60;;;;;;4993824;28;20049;-86
2022/02/19 03:12:47;;;;;;;12.68;2.28;;;7.00;99.20;;;;;;5007835;28;20046;-86
2022/02/19 03:15:18;;;;;;;12.35;1.85;;;7.00;99.40;;;;;;5001645;28;20516;-87
2022/02/19 03:17:45;;;;;;;11.80;2.25;;;7.00;98.60;;;;;;4999672;28;20088;-87
2022/02/19 03:20:17;;;;;;;12.18;1.80;;;7.00;99.00;;;;;;5021705;28;20053;-86
2022/02/19 03:22:44;;;;;;;10.80;2.10;;;7.00;99.20;;;;;;4997278;28;20042;-88
2022/02/19 03:25:15;;;;;;;12.60;2.20;;;7.00;99.50;;;;;;4996034;28;20478;-86
2022/02/19 03:27:41;;;;;;;15.43;2.15;;;7.00;99.50;;;;;;5012101;28;20061;-86
2022/02/19 03:30:09;;;;;;;14.77;2.38;;;7.00;99.90;;;;;;4999946;28;20033;-86
2022/02/19 03:32:35;;;;;;;10.80;2.10;;;7.00;99.80;;;;;;5012177;28;20061;-87
2022/02/19 03:35:01;;;;;;;11.15;2.53;;;7.00;99.90;;;;;;4985743;28;20039;-87
2022/02/19 03:37:27;;;;;;;9.57;1.98;;;7.00;99.90;;;;;;4993007;28;20038;-87
2022/02/19 03:39:53;;;;;;;9.10;1.90;;;7.00;99.90;;;;;;4989717;28;20402;-86
2022/02/19 03:42:18;;;;;;;8.73;1.75;;;6.90;99.90;;;;;;4991952;28;20468;-87
2022/02/19 03:44:44;;;;;;;11.90;2.10;;;6.90;99.90;;;;;;4997728;28;20042;-86
2022/02/19 03:47:10;;;;;;;11.52;1.80;;;6.90;99.90;;;;;;5024073;28;20077;-87
2022/02/19 03:49:35;;;;;;;14.15;2.20;;;6.90;99.90;;;;;;5001965;28;20046;-86
2022/02/19 03:52:01;;;;;;;9.70;2.00;;;6.90;99.90;;;;;;4977277;28;20181;-87
2022/02/19 03:54:27;;;;;;;14.48;2.03;;;6.90;99.90;;;;;;5013260;28;20599;-86
2022/02/19 03:56:53;;;;;;;14.38;2.30;;;6.90;99.90;;;;;;5016476;28;20034;-86
2022/02/19 03:59:19;;;;;;;14.43;2.20;;;6.90;99.90;;;;;;4995649;28;20447;-85
2022/02/19 04:01:45;;;;;;;10.95;1.65;;;6.90;99.90;;;;;;4963618;28;20046;-86
2022/02/19 04:04:11;;;;;;;11.10;2.15;;;6.80;99.90;;;;;;4986145;28;20042;-86
2022/02/19 04:06:37;;;;;;;13.13;2.10;;;6.90;99.90;;;;;;4995526;28;20042;-86
2022/02/19 04:09:04;;;;;;;14.48;3.15;;;6.90;99.90;;;;;;5011544;28;20076;-86
2022/02/19 04:11:30;;;;;;;15.70;2.05;;;6.90;99.90;;;;;;5014482;28;20083;-86
2022/02/19 04:13:55;;;;;;;10.65;2.00;;;6.90;99.90;;;;;;4987176;28;20042;-86
2022/02/19 04:16:21;;;;;;;16.70;2.42;;;6.90;99.90;;;;;;5014095;28;20834;-87
2022/02/19 04:18:47;;;;;;;21.42;3.33;;;6.90;99.90;;;;;;4998089;28;20546;-86
2022/02/19 04:21:12;;;;;;;14.35;2.53;;;6.90;99.90;;;;;;4965080;28;20042;-86
2022/02/19 04:23:38;;;;;;;11.55;2.17;;;6.90;99.90;;;;;;5017257;28;20486;-86
2022/02/19 04:26:04;;;;;;;16.02;2.78;;;6.90;99.90;;;;;;5016738;28;20038;-86
2022/02/19 04:28:30;;;;;;;16.15;2.13;;;6.80;99.90;;;;;;5012028;28;20470;-86
2022/02/19 04:30:56;;;;;;;15.05;2.15;;;6.90;99.90;;;;;;4975271;28;20046;-86
2022/02/19 04:33:21;;;;;;;12.43;2.58;;;6.80;99.90;;;;;;4995200;28;20046;-86
2022/02/19 04:35:47;;;;;;;14.30;2.65;;;6.80;99.90;;;;;;4994737;28;20571;-87
2022/02/19 04:38:14;;;;;;;10.32;2.25;;;6.80;99.90;;;;;;4994325;28;20133;-86
2022/02/19 04:40:42;;;;;;;16.30;2.75;;;6.90;99.30;;;;;;4995049;28;20049;-86
2022/02/19 04:43:08;;;;;;;10.70;2.72;;;6.90;99.70;;;;;;4986922;28;20406;-86
2022/02/19 04:45:34;;;;;;;15.43;3.92;;;6.80;99.90;;;;;;5012890;28;20061;-85
2022/02/19 04:48:00;;;;;;;11.98;2.35;;;6.90;99.90;;;;;;4995569;28;20044;-85
2022/02/19 04:50:26;;;;;;;16.38;2.28;;;6.90;99.90;;;;;;4992446;28;20117;-87
2022/02/19 04:52:52;;;;;;;13.35;2.08;;;6.80;99.80;;;;;;4993866;28;20042;-86
2022/02/19 04:55:18;;;;;;;13.52;1.95;;;6.80;99.90;;;;;;4994647;28;20088;-86
2022/02/19 04:57:45;;;;;;;11.35;2.53;;;6.90;99.70;;;;;;4994953;28;20462;-86
2022/02/19 05:00:18;;;;;;;15.18;2.90;;;6.80;99.90;;;;;;5011221;28;20038;-86
2022/02/19 05:02:44;;;;;;;17.35;3.13;;;6.80;99.10;;;;;;4997562;28;20409;-85
2022/02/19 05:05:10;;;;;;;9.93;2.17;;;6.80;99.90;;;;;;4994620;28;20125;-85
2022/02/19 05:07:37;;;;;;;10.60;2.25;;;6.80;99.90;;;;;;5012962;28;20038;-86
2022/02/19 05:10:04;;;;;;;11.90;2.25;;;6.80;99.90;;;;;;5004122;28;20049;-86
2022/02/19 05:12:29;;;;;;;15.05;2.30;;;6.90;99.70;;;;;;4993127;28;20030;-86
2022/02/19 05:14:55;;;;;;;14.45;2.05;;;6.80;99.60;;;;;;4989479;28;20402;-87
2022/02/19 05:17:21;;;;;;;13.82;2.28;;;6.90;99.90;;;;;;5004308;28;20467;-86
2022/02/19 05:19:47;;;;;;;13.43;3.00;;;6.80;99.90;;;;;;4983475;28;20035;-89
2022/02/19 05:22:13;;;;;;;15.25;2.47;;;6.80;99.80;;;;;;4984313;28;20046;-88
2022/02/19 05:24:38;;;;;;;14.98;2.28;;;6.80;99.50;;;;;;5012565;28;20038;-86
2022/02/19 05:27:04;;;;;;;17.00;2.70;;;6.80;99.70;;;;;;5012135;28;20045;-85
2022/02/19 05:29:30;;;;;;;13.10;2.45;;;6.80;99.90;;;;;;5021810;28;20047;-86
2022/02/19 05:31:56;;;;;;;9.63;1.90;;;6.80;99.90;;;;;;4979719;28;20066;-87
2022/02/19 05:34:22;;;;;;;17.52;2.03;;;6.80;99.90;;;;;;4984403;28;20561;-86
2022/02/19 05:36:47;;;;;;;13.85;2.20;;;6.80;99.90;;;;;;4987282;28;20034;-86
2022/02/19 05:39:14;;;;;;;12.60;2.50;;;6.80;99.90;;;;;;5017109;28;20102;-86
2022/02/19 05:41:40;;;;;;;12.18;2.00;;;6.80;99.90;;;;;;5016189;28;20062;-87
2022/02/19 05:44:06;;;;;;;11.05;1.75;;;6.70;99.90;;;;;;5015620;28;20042;-88
2022/02/19 05:46:33;;;;;;;12.30;1.85;;;6.70;99.90;;;;;;4990711;28;20099;-88
2022/02/19 05:49:00;;;;;;;15.75;2.50;;;6.70;99.90;;;;;;4992645;28;20111;-86
2022/02/19 05:51:26;;;;;;;14.23;2.60;;;6.60;99.90;;;;;;5012074;28;20067;-88
2022/02/19 05:53:52;;;;;;;10.90;2.35;;;6.60;99.90;;;;;;4995827;28;20115;-87
2022/02/19 05:56:18;;;;;;;9.60;2.05;;;6.60;99.90;;;;;;5018329;28;20125;-86
2022/02/19 05:58:44;;;;;;;15.65;2.47;;;6.60;99.90;;;;;;5024468;28;20039;-84
2022/02/19 06:01:11;;;;;;;9.32;2.80;;;6.60;99.90;;;;;;4998707;28;20468;-85
2022/02/19 06:03:38;;;;;;;14.77;2.17;;;6.60;99.90;;;;;;5017720;28;20038;-87
2022/02/19 06:06:04;;;;;;;17.35;2.05;;;6.70;99.90;;;;;;5003551;28;20474;-86
2022/02/19 06:08:30;;;;;;;16.45;3.28;;;6.70;99.90;;;;;;5005715;28;20038;-86
2022/02/19 06:10:56;;;;;;;15.35;3.05;;;6.60;99.90;;;;;;5003270;28;20538;-86
2022/02/19 06:13:21;;;;;;;14.70;2.53;;;6.70;99.90;;;;;;4970035;28;20042;-85
2022/02/19 06:15:47;;;;;;;11.40;2.22;;;6.70;99.90;;;;;;5007267;28;20050;-87
2022/02/19 06:18:13;;;;;;;13.20;2.00;;;6.70;99.90;;;;;;5030028;28;20044;-86
2022/02/19 06:20:38;;;;;;;10.20;2.30;;;6.70;99.90;;;;;;5016440;28;20053;-87
2022/02/19 06:23:04;;;;;;;17.50;2.85;;;6.70;99.90;;;;;;4984435;28;20038;-87
2022/02/19 06:25:30;;;;;;;14.85;2.42;;;6.70;99.90;;;;;;5015842;28;20045;-87
2022/02/19 06:27:55;;;;;;;13.63;2.28;;;6.60;99.90;;;;;;4981396;28;20545;-86
2022/02/19 06:30:21;;;;;;;11.82;1.92;;;6.70;99.90;;;;;;5014130;28;20033;-86
2022/02/19 06:32:47;;;;;;;17.15;3.05;;;6.70;99.90;;;;;;4997621;28;20093;-86
2022/02/19 06:35:13;;;;;;;13.13;2.40;;;6.60;99.90;;;;;;4985953;28;20038;-87
2022/02/19 06:37:44;;;;;;;10.82;1.67;;;6.60;99.90;;;;;;5014317;28;20088;-87
2022/02/19 06:40:12;;;;;;;14.07;2.85;;;6.60;99.90;;;;;;5003556;28;20041;-87
2022/02/19 06:42:38;;;;;;;11.40;3.15;;;6.70;99.90;;;;;;4990481;28;20038;-87
2022/02/19 06:45:05;;;;;;;9.80;2.15;;;6.70;99.90;;;;;;4999429;28;20034;-86
2022/02/19 06:47:34;;;;;;;14.05;2.00;;;6.70;99.90;;;;;;5004360;28;20078;-87
2022/02/19 06:50:01;;;;;;;9.27;1.65;;;6.60;99.90;;;;;;5018811;28;20040;-86
2022/02/19 06:52:27;;;;;;;16.65;1.92;;;6.70;99.90;;;;;;4997147;28;20042;-86
2022/02/19 06:54:53;;;;;;;12.98;2.13;;;6.60;99.90;;;;;;4975289;28;20044;-86
2022/02/19 06:57:21;;;;;;;14.38;3.10;;;6.60;99.90;;;;;;5023003;28;20030;-86
2022/02/19 06:59:48;;;;;;;11.02;2.85;;;6.60;99.90;;;;;;4997124;28;20050;-87
2022/02/19 07:02:14;;;;;;;16.48;2.55;;;6.70;99.90;;;;;;5006492;28;20026;-86
2022/02/19 07:04:39;;;;;;;11.82;1.75;;;6.60;99.90;;;;;;4981170;28;20038;-85
2022/02/19 07:07:05;;;;;;;12.25;1.95;;;6.60;99.90;;;;;;5018751;28;20054;-85
2022/02/19 07:09:31;;;;;;;18.35;2.47;;;6.60;99.90;;;;;;5001796;28;20127;-88
2022/02/19 07:11:57;;;;;;;13.48;2.92;;;6.60;99.90;;;;;;5026867;28;20042;-85
2022/02/19 07:14:23;;;;;;;11.77;3.25;;;6.60;99.90;;;;;;5024498;28;20030;-86
2022/02/19 07:16:49;;;;;;;10.38;2.33;;;6.60;99.90;;;;;;5004122;28;20136;-85
2022/02/19 07:19:15;;;;;;;11.82;2.33;;;6.70;99.90;;;;;;4989441;28;20175;-87
2022/02/19 07:21:41;;;;;;;11.20;1.92;;;6.60;99.90;;;;;;4992975;28;20107;-87
2022/02/19 07:24:07;;;;;;;15.20;2.50;;;6.60;99.90;;;;;;5001523;28;20045;-87
2022/02/19 07:26:32;;;;;;;12.50;1.85;;;6.70;99.90;;;;;;5001722;28;20038;-83
2022/02/19 07:28:59;;;;;;;14.15;2.42;;;6.60;99.90;;;;;;4981844;28;20053;-85
2022/02/19 07:31:25;;;;;;;8.63;1.55;;;6.60;99.90;;;;;;5018561;28;20501;-85
2022/02/19 07:33:51;;;;;;;15.32;2.40;;;6.60;99.90;;;;;;5004444;28;20070;-86
2022/02/19 07:36:16;;;;;;;11.45;2.13;;;6.60;99.90;;;;;;5017719;28;20039;-86
2022/02/19 07:38:42;;;;;;;13.40;2.03;;;6.60;99.90;;;;;;4987612;28;20506;-86
2022/02/19 07:41:08;;;;;;;13.73;2.30;;;6.60;99.90;;;;;;5017896;28;20040;-86
2022/02/19 07:43:34;;;;;;;9.70;1.90;;;6.70;99.90;;;;;;4994422;28;20357;-86
2022/02/19 07:46:01;;;;;;;10.20;2.40;;;6.70;99.90;;;;;;5001071;28;20055;-86
2022/02/19 07:48:29;;;;;;;9.43;2.13;;;6.60;99.90;;;;;;5007883;28;20479;-86
2022/02/19 07:59:08;;;;;;;11.73;1.95;;;6.70;99.90;;;;;;4994508;28;20100;-85
2022/02/19 08:01:34;;;;;;;9.40;1.80;;;6.70;99.90;;;;;;4997370;28;20406;-87
2022/02/19 08:03:59;;;;;;;17.50;3.03;;;6.70;99.90;;;;;;5015929;28;20116;-87
2022/02/19 08:06:25;;;;;;;12.13;2.45;;;6.70;99.90;;;;;;4980062;28;20069;-87
2022/02/19 08:08:51;;;;;;;13.27;2.20;;;6.70;99.90;;;;;;4993223;28;20048;-86
2022/02/19 08:11:17;;;;;;;9.48;1.63;;;6.70;99.90;;;;;;4984853;28;20045;-88
2022/02/19 08:13:54;;;;;;;13.35;2.63;;;6.70;99.90;;;;;;5083258;27;1316495;-86
2022/02/19 08:16:20;;;;;;;12.90;2.15;;;6.70;99.90;;;;;;5081384;28;20036;-88
2022/02/19 08:18:50;;;;;;;12.30;2.05;;;6.70;99.90;;;;;;5075140;28;20028;-85
2022/02/19 08:21:17;;;;;;;10.98;1.80;;;6.70;99.90;;;;;;5089426;28;20020;-85
2022/02/19 08:23:43;;;;;;;12.35;1.95;;;6.70;99.90;;;;;;5093885;28;20032;-87
2022/02/19 08:26:09;;;;;;;10.88;2.67;;;6.70;99.90;;;;;;5077500;28;20119;-86
2022/02/19 08:28:35;;;;;;;11.98;2.10;;;6.70;99.90;;;;;;5093809;28;20016;-86
2022/02/19 08:31:00;;;;;;;10.70;2.30;;;6.70;99.90;;;;;;5075973;28;20150;-86
2022/02/19 08:33:26;;;;;;;17.85;2.47;;;6.70;99.90;;;;;;5092963;28;20040;-85
2022/02/19 08:35:52;;;;;;;9.52;1.75;;;6.80;99.90;;;;;;5109939;28;20019;-86
2022/02/19 08:38:18;;;;;;;16.75;2.97;;;6.70;99.90;;;;;;5092085;28;20031;-86
2022/02/19 08:40:44;;;;;;;14.70;2.97;;;6.70;99.90;;;;;;5075862;28;20042;-86
2022/02/19 08:43:10;;;;;;;10.65;1.92;;;6.80;99.90;;;;;;5087703;28;20036;-86
2022/02/19 08:45:36;;;;;;;11.20;1.98;;;6.80;99.90;;;;;;5110467;28;20028;-86
2022/02/19 08:48:04;;;;;;;10.90;1.67;;;6.80;99.90;;;;;;5078289;28;20069;-87
2022/02/19 08:50:34;;;;;;;15.00;3.20;;;6.80;99.90;;;;;;5093066;28;20414;-87
2022/02/19 08:53:00;;;;;;;13.00;1.92;;;6.80;99.90;;;;;;5092123;28;20036;-87
2022/02/19 08:55:27;;;;;;;11.50;2.05;;;6.80;99.90;;;;;;5074701;28;20020;-87
2022/02/19 08:57:53;;;;;;;17.67;2.55;;;6.80;99.90;;;;;;5096342;28;20031;-86
2022/02/19 09:00:19;;;;;;;14.20;2.22;;;6.80;99.90;;;;;;5075087;28;20028;-86
2022/02/19 09:02:45;;;;;;;12.80;2.55;;;6.80;99.90;;;;;;5083590;28;20024;-86
2022/02/19 09:05:13;;;;;;;11.07;1.95;;;6.90;99.90;;;;;;5110695;28;20090;-86
2022/02/19 09:07:39;;;;;;;10.75;1.70;;;6.90;99.90;;;;;;5093370;28;20039;-86
2022/02/19 09:10:07;;;;;;;17.33;2.15;;;6.90;99.90;;;;;;5061336;28;20027;-86
2022/02/19 09:12:33;;;;;;;17.77;2.67;;;6.90;99.90;;;;;;5092954;28;20032;-86
2022/02/19 09:14:59;;;;;;;14.50;2.20;;;7.00;99.90;;;;;;5089806;28;20082;-85
2022/02/19 09:17:25;;;;;;;14.18;2.90;;;7.00;99.90;;;;;;5075961;28;20047;-85
2022/02/19 09:19:50;;;;;;;9.43;2.00;;;7.00;99.90;;;;;;5091675;28;20040;-86
2022/02/19 09:22:16;;;;;;;11.10;2.40;;;7.00;99.90;;;;;;5095047;28;20126;-85
2022/02/19 09:24:42;;;;;;;9.48;2.08;;;7.00;99.90;;;;;;5099961;28;20056;-86
2022/02/19 09:27:07;;;;;;;10.25;2.17;;;7.00;99.90;;;;;;5045649;28;20032;-85
2022/02/19 09:29:33;;;;;;;11.27;2.97;;;7.10;99.90;;;;;;5063434;28;20476;-86
2022/02/19 09:31:59;;;;;;;12.13;2.25;;;7.10;99.90;;;;;;5079905;28;20024;-87
2022/02/19 09:34:24;;;;;;;14.77;2.50;;;7.10;99.90;;;;;;5047581;28;20529;-85
2022/02/19 09:36:54;;;;;;;11.02;1.90;;;7.20;99.90;;;;;;5096662;28;20028;-90
2022/02/19 09:39:20;;;;;;;14.07;2.20;;;7.30;99.90;;;;;;5085322;28;20020;-88
2022/02/19 09:41:47;;;;;;;10.48;2.00;;;7.40;99.90;;;;;;5079229;28;20020;-86
2022/02/19 09:44:14;;;;;;;10.65;2.28;;;7.40;99.90;;;;;;5076507;28;20044;-87
2022/02/19 09:46:40;;;;;;;17.77;2.33;;;7.40;99.90;;;;;;5110095;28;20054;-85
2022/02/19 09:49:07;;;;;;;13.32;1.90;;;7.40;99.90;;;;;;5090468;28;20080;-87
2022/02/19 09:51:34;;;;;;;11.68;2.03;;;7.40;99.90;;;;;;5105247;28;20043;-85
2022/02/19 09:54:00;;;;;;;16.00;3.00;;;7.40;99.90;;;;;;5102026;28;20028;-86
2022/02/19 09:56:28;;;;;;;16.73;2.30;;;7.40;99.90;;;;;;5079562;28;20034;-85
2022/02/19 09:58:55;;;;;;;13.00;1.70;;;7.50;99.90;;;;;;5094082;28;20073;-86
2022/02/19 10:01:22;;;;;;;10.90;1.60;;;7.50;99.90;;;;;;5059356;28;20028;-85
2022/02/19 10:04:01;;;;;;;13.60;1.90;;;7.50;99.90;;;;;;5059302;28;20042;-86
2022/02/19 10:06:35;;;;;;;10.55;1.83;;;7.60;99.90;;;;;;5085975;28;20062;-85
2022/02/19 10:09:18;;;;;;;12.93;2.28;;;7.60;99.90;;;;;;5090088;28;20039;-87
2022/02/19 10:11:45;;;;;;;11.82;1.92;;;7.70;99.90;;;;;;5092584;28;20107;-86
2022/02/19 10:14:20;;;;;;;11.65;1.85;;;7.70;99.90;;;;;;5059174;28;20074;-85
2022/02/19 10:17:08;;;;;;;13.20;2.10;;;7.80;99.90;;;;;;5075470;28;20529;-86
2022/02/19 10:19:57;;;;;;;11.77;2.75;;;7.90;99.90;;;;;;5072981;28;20111;-86
2022/02/19 10:22:37;;;;;;;13.52;2.80;;;7.90;99.90;;;;;;5076170;28;20480;-85
2022/02/19 10:25:04;;;;;;;18.23;2.40;;;7.90;99.90;;;;;;5060608;28;20078;-86
2022/02/19 10:27:45;;;;;;;11.63;2.22;;;8.00;99.90;;;;;;5076056;28;20032;-87
2022/02/19 10:30:19;;;;;;;11.20;1.55;;;8.10;99.90;;;;;;5093589;28;20084;-86
2022/02/19 10:32:54;;;;;;;8.02;1.80;;;8.10;99.90;;;;;;5075654;28;20104;-86
2022/02/19 10:35:27;;;;;;;13.88;2.15;;;8.20;99.90;;;;;;5092115;28;20048;-85
2022/02/19 10:37:53;;;;;;;14.45;2.28;;;8.20;99.90;;;;;;5070367;28;20016;-85
2022/02/19 10:40:28;;;;;;;10.60;1.92;;;8.30;99.90;;;;;;5093084;28;20374;-85
2022/02/19 10:42:57;;;;;;;12.35;2.50;;;8.30;99.90;;;;;;5092969;28;20095;-86
2022/02/19 10:45:23;;;;;;;10.90;2.53;;;8.30;99.90;;;;;;5093371;28;20024;-86
2022/02/19 10:47:49;;;;;;;9.60;2.40;;;8.40;99.90;;;;;;5058258;28;20028;-86
2022/02/19 10:50:19;;;;;;;15.75;2.90;;;8.40;99.90;;;;;;5075789;28;20032;-87
2022/02/19 10:52:52;;;;;;;9.90;2.03;;;8.50;99.90;;;;;;5093608;28;20081;-86
2022/02/19 10:55:19;;;;;;;12.13;2.35;;;8.60;99.90;;;;;;5074995;28;20088;-85
2022/02/19 10:57:46;;;;;;;12.75;2.05;;;8.60;99.90;;;;;;5074288;28;20097;-87
2022/02/19 11:00:22;;;;;;;15.70;1.80;;;8.70;99.90;;;;;;5074686;28;20052;-84
2022/02/19 11:02:49;;;;;;;11.07;2.53;;;8.80;99.90;;;;;;5090512;28;20032;-87
2022/02/19 11:05:17;;;;;;;12.35;2.35;;;8.90;99.90;;;;;;5075223;28;20514;-82
2022/02/19 11:07:45;;;;;;;11.98;2.28;;;8.90;99.90;;;;;;5058826;28;20119;-86
2022/02/19 11:10:16;;;;;;;9.68;2.00;;;9.00;99.90;;;;;;5075369;28;20063;-87
2022/02/19 11:12:42;;;;;;;14.85;1.83;;;9.00;99.70;;;;;;5092603;28;20169;-87
2022/02/19 11:15:09;;;;;;;10.07;2.30;;;9.00;99.90;;;;;;5092245;28;20060;-87
2022/02/19 11:17:35;;;;;;;6.22;1.65;;;9.00;99.90;;;;;;5075484;28;20103;-88
2022/02/19 11:20:04;;;;;;;12.20;2.17;;;9.00;99.90;;;;;;5061951;28;20043;-88
2022/02/19 11:22:32;;;;;;;9.35;2.13;;;8.90;99.00;;;;;;5087556;28;20035;-86
2022/02/19 11:24:59;;;;;;;11.02;1.95;;;9.00;99.00;;;;;;5074469;28;20032;-87
2022/02/19 11:27:32;;;;;;;14.50;2.33;;;9.00;97.80;;;;;;5070609;28;20349;-87
2022/02/19 11:30:02;;;;;;;11.82;2.95;;;9.00;98.30;;;;;;5092221;28;20081;-88
2022/02/19 11:32:29;;;;;;;11.85;1.90;;;9.10;97.40;;;;;;5092261;28;20061;-86
2022/02/19 11:34:55;;;;;;;10.40;2.15;;;9.10;98.50;;;;;;5073043;28;20051;-86
2022/02/19 11:37:22;;;;;;;10.18;1.42;;;9.20;99.70;;;;;;5057947;28;20526;-85
2022/02/19 11:40:10;;;;;;;9.65;1.88;;;9.30;97.40;;;;;;5091114;28;20039;-88
2022/02/19 11:42:39;;;;;;;10.40;2.30;;;9.30;97.20;;;;;;5088918;28;20079;-87
2022/02/19 11:45:24;;;;;;;13.30;2.38;;;9.40;97.80;;;;;;5065549;28;20476;-86
2022/02/19 11:48:06;;;;;;;8.40;1.85;;;9.40;97.90;;;;;;5071518;28;20028;-87
2022/02/19 11:50:36;;;;;;;12.10;3.35;;;9.50;98.60;;;;;;5067409;28;20388;-85
2022/02/19 11:53:23;;;;;;;7.90;2.17;;;9.60;96.60;;;;;;5073126;28;20039;-86
2022/02/19 11:55:49;;;;;;;9.05;1.92;;;9.70;96.50;;;;;;5071986;28;20031;-85
2022/02/19 11:58:22;;;;;;;9.93;2.40;;;9.80;97.40;;;;;;5091396;28;20024;-85
2022/02/19 12:01:09;;;;;;;9.55;1.92;;;9.80;95.70;;;;;;5086652;28;20027;-85
2022/02/19 12:03:35;;;;;;;8.65;1.90;;;9.90;95.90;;;;;;5073061;28;20035;-86
2022/02/19 12:06:14;;;;;;;7.85;1.90;;;9.90;96.20;;;;;;5070403;28;20024;-85
2022/02/19 12:08:49;;;;;;;13.25;2.60;;;9.90;96.10;;;;;;5070833;28;20071;-84
2022/02/19 12:11:17;;;;;;;8.63;1.80;;;9.90;95.00;;;;;;5069884;28;20111;-85
2022/02/19 12:13:50;;;;;;;11.77;2.00;;;9.90;95.10;;;;;;5068389;28;20056;-84
2022/02/19 12:16:31;;;;;;;9.05;1.55;;;9.90;95.60;;;;;;5090389;28;20020;-85
2022/02/19 12:18:57;;;;;;;11.25;2.20;;;10.00;96.50;;;;;;5061904;28;20029;-86
2022/02/19 12:21:39;;;;;;;9.60;1.75;;;10.10;95.30;;;;;;5072505;28;20483;-86
2022/02/19 12:24:25;;;;;;;11.60;2.33;;;10.10;94.60;;;;;;5090940;28;20013;-86
2022/02/19 12:26:54;;;;;;;9.30;2.55;;;10.10;95.50;;;;;;5085754;28;20063;-85
2022/02/19 12:29:24;;;;;;;10.10;2.78;;;10.10;96.60;;;;;;5073095;28;20039;-84
2022/02/19 12:32:01;;;;;;;7.47;1.83;;;10.10;94.60;;;;;;5072839;28;20031;-85
2022/02/19 12:34:30;;;;;;;9.48;1.88;;;10.10;93.80;;;;;;5090681;28;20020;-85
2022/02/19 12:36:56;;;;;;;7.03;1.73;;;10.10;93.70;;;;;;5064779;28;20024;-84
2022/02/19 12:39:23;;;;;;;8.35;1.65;;;10.00;93.10;;;;;;5056205;28;20513;-84
2022/02/19 12:41:52;;;;;;;9.27;1.42;;;10.00;93.10;;;;;;5091595;28;20032;-82
2022/02/19 12:44:19;;;;;;;10.93;2.53;;;10.10;92.10;;;;;;5090615;28;20142;-82
2022/02/19 12:46:45;;;;;;;9.00;1.80;;;10.10;93.00;;;;;;5090317;28;20028;-82
2022/02/19 12:49:12;;;;;;;9.88;2.13;;;10.10;93.80;;;;;;5090872;28;20035;-82
2022/02/19 12:51:38;;;;;;;6.20;1.38;;;10.20;91.60;;;;;;5061456;28;20028;-84
2022/02/19 12:54:04;;;;;;;10.85;2.25;;;10.20;92.40;;;;;;5056210;28;20484;-84
2022/02/19 12:56:40;;;;;;;8.77;2.00;;;10.20;92.50;;;;;;5072423;28;20020;-83